sensor_id;sensor_type;location;lat;lon;timestamp;pressure;altitude;pressure_sealevel;temperature;humidity
3122;BME280;1571;52.524;14.104;2022-07-23T00:01:14;101133.53;;;16.17;100.00
3122;BME280;1571;52.524;14.104;2022-07-23T00:03:53;101128.91;;;15.86;100.00
3122;BME280;1571;52.524;14.104;2022-07-23T00:06:23;101131.72;;;15.95;100.00
3122;BME280;1571;52.524;14.104;2022-07-23T00:08:52;101139.28;;;16.01;100.00
3122;BME280;1571;52.524;14.104;2022-07-23T00:11:21;101125.25;;;15.87;100.00
3122;BME280;1571;52.524;14.104;2022-07-23T00:13:49;101128.06;;;15.85;100.00
3122;BME280;1571;52.524;14.104;2022-07-23T00:16:18;101135.97;;;15.51;100.00
3122;BME280;1571;52.524;14.104;2022-07-23T00:18:46;101135.84;;;15.77;100.00
3122;BME280;1571;52.524;14.104;2022-07-23T00:21:14;101130.00;;;15.72;100.00
3122;BME280;1571;52.524;14.104;2022-07-23T00:23:44;101128.53;;;15.79;100.00
3122;BME280;1571;52.524;14.104;2022-07-23T00:26:12;101133.59;;;15.59;100.00
3122;BME280;1571;52.524;14.104;2022-07-23T00:28:40;101149.81;;;15.34;100.00
3122;BME280;1571;52.524;14.104;2022-07-23T00:31:09;101149.03;;;15.56;100.00
3122;BME280;1571;52.524;14.104;2022-07-23T00:33:37;101143.78;;;15.54;100.00
3122;BME280;1571;52.524;14.104;2022-07-23T00:36:06;101130.75;;;15.74;100.00
3122;BME280;1571;52.524;14.104;2022-07-23T00:38:34;101143.78;;;16.12;100.00
3122;BME280;1571;52.524;14.104;2022-07-23T00:41:04;101137.31;;;16.03;100.00
3122;BME280;1571;52.524;14.104;2022-07-23T00:43:32;101130.19;;;15.69;100.00
3122;BME280;1571;52.524;14.104;2022-07-23T00:46:01;101120.47;;;15.68;100.00
3122;BME280;1571;52.524;14.104;2022-07-23T00:48:29;101134.28;;;15.39;100.00
3122;BME280;1571;52.524;14.104;2022-07-23T00:50:57;101131.38;;;15.53;100.00
3122;BME280;1571;52.524;14.104;2022-07-23T00:53:26;101135.25;;;15.38;100.00
3122;BME280;1571;52.524;14.104;2022-07-23T00:55:54;101129.13;;;15.25;100.00
3122;BME280;1571;52.524;14.104;2022-07-23T00:58:24;101138.31;;;15.09;100.00
3122;BME280;1571;52.524;14.104;2022-07-23T01:00:53;101136.75;;;15.18;100.00
3122;BME280;1571;52.524;14.104;2022-07-23T01:03:21;101125.50;;;15.37;100.00
3122;BME280;1571;52.524;14.104;2022-07-23T01:05:50;101128.84;;;15.16;100.00
3122;BME280;1571;52.524;14.104;2022-07-23T01:08:18;101131.06;;;15.23;100.00
3122;BME280;1571;52.524;14.104;2022-07-23T01:10:49;101131.13;;;15.10;100.00
3122;BME280;1571;52.524;14.104;2022-07-23T01:13:18;101112.06;;;15.14;100.00
3122;BME280;1571;52.524;14.104;2022-07-23T01:15:47;101125.00;;;14.96;100.00
3122;BME280;1571;52.524;14.104;2022-07-23T01:18:16;101122.50;;;15.17;100.00
3122;BME280;1571;52.524;14.104;2022-07-23T01:20:44;101121.88;;;15.38;100.00
3122;BME280;1571;52.524;14.104;2022-07-23T01:23:14;101124.75;;;15.35;100.00
3122;BME280;1571;52.524;14.104;2022-07-23T01:25:48;101117.47;;;15.37;100.00
3122;BME280;1571;52.524;14.104;2022-07-23T01:28:17;101116.16;;;15.43;100.00
3122;BME280;1571;52.524;14.104;2022-07-23T01:30:46;101118.09;;;15.40;100.00
3122;BME280;1571;52.524;14.104;2022-07-23T01:33:15;101104.94;;;15.37;100.00
3122;BME280;1571;52.524;14.104;2022-07-23T01:35:43;101102.38;;;15.25;100.00
3122;BME280;1571;52.524;14.104;2022-07-23T01:38:18;101094.75;;;14.96;100.00
3122;BME280;1571;52.524;14.104;2022-07-23T01:40:46;101114.69;;;15.38;100.00
3122;BME280;1571;52.524;14.104;2022-07-23T01:43:21;101101.75;;;15.21;100.00
3122;BME280;1571;52.524;14.104;2022-07-23T01:45:53;101100.13;;;15.07;100.00
3122;BME280;1571;52.524;14.104;2022-07-23T01:48:23;101109.09;;;15.06;100.00
3122;BME280;1571;52.524;14.104;2022-07-23T01:51:10;101109.16;;;15.17;100.00
3122;BME280;1571;52.524;14.104;2022-07-23T01:53:43;101108.72;;;15.35;100.00
3122;BME280;1571;52.524;14.104;2022-07-23T01:56:11;101097.75;;;15.15;100.00
3122;BME280;1571;52.524;14.104;2022-07-23T01:58:42;101089.25;;;15.33;100.00
3122;BME280;1571;52.524;14.104;2022-07-23T02:01:10;101070.66;;;15.31;100.00
3122;BME280;1571;52.524;14.104;2022-07-23T02:03:38;101060.19;;;15.28;100.00
3122;BME280;1571;52.524;14.104;2022-07-23T02:06:07;101055.34;;;15.22;100.00
3122;BME280;1571;52.524;14.104;2022-07-23T02:08:35;101053.25;;;15.26;100.00
3122;BME280;1571;52.524;14.104;2022-07-23T02:11:05;101050.09;;;15.20;100.00
3122;BME280;1571;52.524;14.104;2022-07-23T02:13:33;101053.47;;;15.11;100.00
3122;BME280;1571;52.524;14.104;2022-07-23T02:16:02;101056.50;;;15.07;100.00
3122;BME280;1571;52.524;14.104;2022-07-23T02:18:31;101057.09;;;15.10;100.00
3122;BME280;1571;52.524;14.104;2022-07-23T02:20:59;101064.78;;;15.15;100.00
3122;BME280;1571;52.524;14.104;2022-07-23T02:23:27;101067.34;;;15.16;100.00
3122;BME280;1571;52.524;14.104;2022-07-23T02:25:55;101062.25;;;15.13;100.00
3122;BME280;1571;52.524;14.104;2022-07-23T02:28:25;101069.47;;;15.00;100.00
3122;BME280;1571;52.524;14.104;2022-07-23T02:30:53;101091.38;;;15.05;100.00
3122;BME280;1571;52.524;14.104;2022-07-23T02:33:21;101079.22;;;15.12;100.00
3122;BME280;1571;52.524;14.104;2022-07-23T02:35:50;101075.53;;;15.37;100.00
3122;BME280;1571;52.524;14.104;2022-07-23T02:38:20;101084.06;;;15.43;100.00
3122;BME280;1571;52.524;14.104;2022-07-23T02:40:48;101079.94;;;15.50;100.00
3122;BME280;1571;52.524;14.104;2022-07-23T02:43:18;101073.25;;;15.55;100.00
3122;BME280;1571;52.524;14.104;2022-07-23T02:45:47;101078.38;;;15.58;100.00
3122;BME280;1571;52.524;14.104;2022-07-23T02:48:15;101084.91;;;15.43;100.00
3122;BME280;1571;52.524;14.104;2022-07-23T02:50:47;101084.44;;;15.38;100.00
3122;BME280;1571;52.524;14.104;2022-07-23T02:53:21;101079.78;;;15.51;100.00
3122;BME280;1571;52.524;14.104;2022-07-23T02:55:50;101075.44;;;15.50;100.00
3122;BME280;1571;52.524;14.104;2022-07-23T02:58:18;101088.31;;;15.45;100.00
3122;BME280;1571;52.524;14.104;2022-07-23T03:00:49;101077.63;;;15.45;100.00
3122;BME280;1571;52.524;14.104;2022-07-23T03:03:17;101083.81;;;15.46;100.00
3122;BME280;1571;52.524;14.104;2022-07-23T03:05:46;101067.41;;;15.50;100.00
3122;BME280;1571;52.524;14.104;2022-07-23T03:08:14;101063.25;;;15.46;100.00
3122;BME280;1571;52.524;14.104;2022-07-23T03:10:48;101065.53;;;15.28;100.00
3122;BME280;1571;52.524;14.104;2022-07-23T03:13:16;101071.50;;;15.32;100.00
3122;BME280;1571;52.524;14.104;2022-07-23T03:15:44;101073.69;;;15.27;100.00
3122;BME280;1571;52.524;14.104;2022-07-23T03:18:14;101081.44;;;15.18;100.00
3122;BME280;1571;52.524;14.104;2022-07-23T03:20:43;101098.59;;;15.16;100.00
3122;BME280;1571;52.524;14.104;2022-07-23T03:23:11;101083.09;;;15.55;100.00
3122;BME280;1571;52.524;14.104;2022-07-23T03:25:39;101091.47;;;15.50;100.00
3122;BME280;1571;52.524;14.104;2022-07-23T03:28:08;101091.44;;;15.28;100.00
3122;BME280;1571;52.524;14.104;2022-07-23T03:30:36;101096.50;;;15.19;100.00
3122;BME280;1571;52.524;14.104;2022-07-23T03:33:04;101085.84;;;15.31;100.00
3122;BME280;1571;52.524;14.104;2022-07-23T03:35:34;101084.91;;;15.43;100.00
3122;BME280;1571;52.524;14.104;2022-07-23T03:38:15;101073.13;;;15.46;100.00
3122;BME280;1571;52.524;14.104;2022-07-23T03:40:44;101064.00;;;15.59;100.00
3122;BME280;1571;52.524;14.104;2022-07-23T03:43:12;101065.00;;;15.70;100.00
3122;BME280;1571;52.524;14.104;2022-07-23T03:45:40;101045.53;;;15.45;100.00
3122;BME280;1571;52.524;14.104;2022-07-23T03:48:08;101042.97;;;15.66;100.00
3122;BME280;1571;52.524;14.104;2022-07-23T03:50:39;101041.69;;;15.83;100.00
3122;BME280;1571;52.524;14.104;2022-07-23T03:53:07;101037.06;;;15.85;100.00
3122;BME280;1571;52.524;14.104;2022-07-23T03:55:35;101037.75;;;15.87;100.00
3122;BME280;1571;52.524;14.104;2022-07-23T03:58:04;101037.97;;;16.18;100.00
3122;BME280;1571;52.524;14.104;2022-07-23T04:00:32;101036.09;;;16.30;100.00
3122;BME280;1571;52.524;14.104;2022-07-23T04:03:01;101041.72;;;16.27;100.00
3122;BME280;1571;52.524;14.104;2022-07-23T04:05:30;101044.66;;;16.35;100.00
3122;BME280;1571;52.524;14.104;2022-07-23T04:08:06;101063.03;;;16.39;100.00
3122;BME280;1571;52.524;14.104;2022-07-23T04:10:38;101065.06;;;16.47;100.00
3122;BME280;1571;52.524;14.104;2022-07-23T04:13:08;101063.03;;;16.72;100.00
3122;BME280;1571;52.524;14.104;2022-07-23T04:15:36;101063.41;;;16.67;100.00
3122;BME280;1571;52.524;14.104;2022-07-23T04:18:05;101059.13;;;16.21;100.00
3122;BME280;1571;52.524;14.104;2022-07-23T04:20:54;101073.72;;;16.39;100.00
3122;BME280;1571;52.524;14.104;2022-07-23T04:23:24;101068.88;;;16.22;100.00
3122;BME280;1571;52.524;14.104;2022-07-23T04:25:52;101068.13;;;16.31;100.00
3122;BME280;1571;52.524;14.104;2022-07-23T04:28:21;101062.59;;;16.55;100.00
3122;BME280;1571;52.524;14.104;2022-07-23T04:30:49;101072.13;;;16.92;100.00
3122;BME280;1571;52.524;14.104;2022-07-23T04:33:17;101086.59;;;16.45;100.00
3122;BME280;1571;52.524;14.104;2022-07-23T04:35:49;101082.63;;;16.72;100.00
3122;BME280;1571;52.524;14.104;2022-07-23T04:38:20;101072.91;;;16.71;100.00
3122;BME280;1571;52.524;14.104;2022-07-23T04:40:52;101084.94;;;16.33;100.00
3122;BME280;1571;52.524;14.104;2022-07-23T04:43:20;101092.16;;;16.10;100.00
3122;BME280;1571;52.524;14.104;2022-07-23T04:45:50;101083.97;;;16.23;100.00
3122;BME280;1571;52.524;14.104;2022-07-23T04:48:19;101081.28;;;16.23;100.00
3122;BME280;1571;52.524;14.104;2022-07-23T04:50:53;101075.06;;;16.34;100.00
3122;BME280;1571;52.524;14.104;2022-07-23T04:53:22;101061.59;;;16.24;100.00
3122;BME280;1571;52.524;14.104;2022-07-23T04:55:55;101070.81;;;16.31;100.00
3122;BME280;1571;52.524;14.104;2022-07-23T04:58:24;101085.16;;;16.53;100.00
3122;BME280;1571;52.524;14.104;2022-07-23T05:00:52;101073.91;;;16.59;100.00
3122;BME280;1571;52.524;14.104;2022-07-23T05:03:21;101080.81;;;16.73;100.00
3122;BME280;1571;52.524;14.104;2022-07-23T05:05:49;101089.16;;;16.58;100.00
3122;BME280;1571;52.524;14.104;2022-07-23T05:08:18;101091.75;;;16.37;100.00
3122;BME280;1571;52.524;14.104;2022-07-23T05:10:50;101102.09;;;16.42;100.00
3122;BME280;1571;52.524;14.104;2022-07-23T05:13:21;101125.22;;;16.54;100.00
3122;BME280;1571;52.524;14.104;2022-07-23T05:15:51;101137.75;;;16.54;100.00
3122;BME280;1571;52.524;14.104;2022-07-23T05:18:20;101136.31;;;16.50;100.00
3122;BME280;1571;52.524;14.104;2022-07-23T05:20:48;101140.69;;;16.51;100.00
3122;BME280;1571;52.524;14.104;2022-07-23T05:23:19;101150.28;;;16.76;100.00
3122;BME280;1571;52.524;14.104;2022-07-23T05:25:49;101130.06;;;16.60;100.00
3122;BME280;1571;52.524;14.104;2022-07-23T05:28:18;101112.69;;;16.43;100.00
3122;BME280;1571;52.524;14.104;2022-07-23T05:30:51;101106.50;;;16.20;100.00
3122;BME280;1571;52.524;14.104;2022-07-23T05:33:21;101094.69;;;16.23;100.00
3122;BME280;1571;52.524;14.104;2022-07-23T05:35:50;101135.38;;;16.17;100.00
3122;BME280;1571;52.524;14.104;2022-07-23T05:38:29;101098.72;;;16.29;100.00
3122;BME280;1571;52.524;14.104;2022-07-23T05:40:59;101070.38;;;16.15;100.00
3122;BME280;1571;52.524;14.104;2022-07-23T05:43:29;101070.84;;;16.09;100.00
3122;BME280;1571;52.524;14.104;2022-07-23T05:46:02;101081.09;;;16.15;100.00
3122;BME280;1571;52.524;14.104;2022-07-23T05:48:32;101076.09;;;15.76;100.00
3122;BME280;1571;52.524;14.104;2022-07-23T05:51:08;101085.09;;;15.75;100.00
3122;BME280;1571;52.524;14.104;2022-07-23T05:53:36;101103.97;;;15.74;100.00
3122;BME280;1571;52.524;14.104;2022-07-23T05:56:09;101111.50;;;16.02;100.00
3122;BME280;1571;52.524;14.104;2022-07-23T05:58:38;101114.16;;;16.25;100.00
3122;BME280;1571;52.524;14.104;2022-07-23T06:01:08;101123.13;;;15.56;100.00
3122;BME280;1571;52.524;14.104;2022-07-23T06:03:44;101118.69;;;15.33;100.00
3122;BME280;1571;52.524;14.104;2022-07-23T06:06:13;101114.38;;;15.54;100.00
3122;BME280;1571;52.524;14.104;2022-07-23T06:08:41;101122.03;;;15.12;100.00
3122;BME280;1571;52.524;14.104;2022-07-23T06:11:11;101137.19;;;15.36;100.00
3122;BME280;1571;52.524;14.104;2022-07-23T06:13:39;101130.75;;;15.74;100.00
3122;BME280;1571;52.524;14.104;2022-07-23T06:16:09;101137.00;;;15.26;100.00
3122;BME280;1571;52.524;14.104;2022-07-23T06:18:37;101149.19;;;15.30;100.00
3122;BME280;1571;52.524;14.104;2022-07-23T06:21:07;101156.47;;;15.28;100.00
3122;BME280;1571;52.524;14.104;2022-07-23T06:23:57;101167.03;;;15.18;100.00
3122;BME280;1571;52.524;14.104;2022-07-23T06:26:25;101168.13;;;15.62;100.00
3122;BME280;1571;52.524;14.104;2022-07-23T06:28:54;101144.38;;;15.47;100.00
3122;BME280;1571;52.524;14.104;2022-07-23T06:31:23;101159.13;;;15.64;100.00
3122;BME280;1571;52.524;14.104;2022-07-23T06:33:51;101141.84;;;15.56;100.00
3122;BME280;1571;52.524;14.104;2022-07-23T06:36:20;101138.66;;;15.98;100.00
3122;BME280;1571;52.524;14.104;2022-07-23T06:38:48;101138.41;;;15.78;100.00
3122;BME280;1571;52.524;14.104;2022-07-23T06:41:18;101146.81;;;15.85;100.00
3122;BME280;1571;52.524;14.104;2022-07-23T06:43:46;101134.88;;;15.89;100.00
3122;BME280;1571;52.524;14.104;2022-07-23T06:46:16;101141.19;;;15.77;100.00
3122;BME280;1571;52.524;14.104;2022-07-23T06:48:46;101139.00;;;15.47;100.00
3122;BME280;1571;52.524;14.104;2022-07-23T06:51:14;101121.47;;;15.78;100.00
3122;BME280;1571;52.524;14.104;2022-07-23T06:53:42;101131.91;;;15.70;100.00
3122;BME280;1571;52.524;14.104;2022-07-23T06:56:10;101136.75;;;15.65;100.00
3122;BME280;1571;52.524;14.104;2022-07-23T06:58:39;101144.22;;;15.72;100.00
3122;BME280;1571;52.524;14.104;2022-07-23T07:01:08;101148.16;;;15.55;100.00
3122;BME280;1571;52.524;14.104;2022-07-23T07:03:36;101157.94;;;15.68;100.00
3122;BME280;1571;52.524;14.104;2022-07-23T07:06:06;101149.75;;;15.11;100.00
3122;BME280;1571;52.524;14.104;2022-07-23T07:08:34;101141.38;;;14.92;100.00
3122;BME280;1571;52.524;14.104;2022-07-23T07:11:03;101156.63;;;15.27;100.00
3122;BME280;1571;52.524;14.104;2022-07-23T07:13:31;101172.59;;;15.51;100.00
3122;BME280;1571;52.524;14.104;2022-07-23T07:15:59;101167.25;;;15.86;100.00
3122;BME280;1571;52.524;14.104;2022-07-23T07:18:28;101155.78;;;15.73;100.00
3122;BME280;1571;52.524;14.104;2022-07-23T07:20:56;101155.09;;;15.11;100.00
3122;BME280;1571;52.524;14.104;2022-07-23T07:23:26;101152.59;;;15.68;100.00
3122;BME280;1571;52.524;14.104;2022-07-23T07:25:54;101162.00;;;15.96;100.00
3122;BME280;1571;52.524;14.104;2022-07-23T07:28:22;101150.50;;;15.60;100.00
3122;BME280;1571;52.524;14.104;2022-07-23T07:30:51;101148.25;;;15.78;100.00
3122;BME280;1571;52.524;14.104;2022-07-23T07:33:19;101150.38;;;15.61;100.00
3122;BME280;1571;52.524;14.104;2022-07-23T07:35:48;101157.75;;;15.82;100.00
3122;BME280;1571;52.524;14.104;2022-07-23T07:38:17;101160.69;;;15.90;100.00
3122;BME280;1571;52.524;14.104;2022-07-23T07:40:46;101176.75;;;15.90;100.00
3122;BME280;1571;52.524;14.104;2022-07-23T07:43:15;101171.03;;;15.95;100.00
3122;BME280;1571;52.524;14.104;2022-07-23T07:45:43;101163.06;;;15.71;100.00
3122;BME280;1571;52.524;14.104;2022-07-23T07:48:12;101140.72;;;15.94;100.00
3122;BME280;1571;52.524;14.104;2022-07-23T07:50:40;101130.88;;;16.17;100.00
3122;BME280;1571;52.524;14.104;2022-07-23T07:53:08;101122.00;;;15.94;100.00
3122;BME280;1571;52.524;14.104;2022-07-23T07:55:37;101114.69;;;15.85;100.00
3122;BME280;1571;52.524;14.104;2022-07-23T07:58:07;101106.41;;;15.77;100.00
3122;BME280;1571;52.524;14.104;2022-07-23T08:00:35;101105.16;;;15.23;100.00
3122;BME280;1571;52.524;14.104;2022-07-23T08:03:04;101118.72;;;15.55;100.00
3122;BME280;1571;52.524;14.104;2022-07-23T08:05:32;101113.16;;;15.58;100.00
3122;BME280;1571;52.524;14.104;2022-07-23T08:08:01;101120.69;;;15.65;100.00
3122;BME280;1571;52.524;14.104;2022-07-23T08:10:29;101112.72;;;15.76;100.00
3122;BME280;1571;52.524;14.104;2022-07-23T08:12:58;101109.56;;;15.93;100.00
3122;BME280;1571;52.524;14.104;2022-07-23T08:15:29;101120.03;;;16.08;100.00
3122;BME280;1571;52.524;14.104;2022-07-23T08:17:58;101127.34;;;16.17;100.00
3122;BME280;1571;52.524;14.104;2022-07-23T08:20:27;101139.13;;;16.14;100.00
3122;BME280;1571;52.524;14.104;2022-07-23T08:22:57;101130.72;;;16.41;100.00
3122;BME280;1571;52.524;14.104;2022-07-23T08:25:28;101113.41;;;16.45;100.00
3122;BME280;1571;52.524;14.104;2022-07-23T08:27:57;101099.81;;;16.26;100.00
3122;BME280;1571;52.524;14.104;2022-07-23T08:30:26;101101.63;;;16.14;100.00
3122;BME280;1571;52.524;14.104;2022-07-23T08:32:58;101082.72;;;16.38;100.00
3122;BME280;1571;52.524;14.104;2022-07-23T08:35:29;101072.56;;;15.87;100.00
3122;BME280;1571;52.524;14.104;2022-07-23T08:37:58;101072.16;;;16.26;100.00
3122;BME280;1571;52.524;14.104;2022-07-23T08:40:31;101066.72;;;15.93;100.00
3122;BME280;1571;52.524;14.104;2022-07-23T08:43:03;101070.47;;;16.24;100.00
3122;BME280;1571;52.524;14.104;2022-07-23T08:45:36;101104.34;;;16.80;100.00
3122;BME280;1571;52.524;14.104;2022-07-23T08:48:08;101111.16;;;16.84;100.00
3122;BME280;1571;52.524;14.104;2022-07-23T08:50:37;101125.28;;;17.19;100.00
3122;BME280;1571;52.524;14.104;2022-07-23T08:53:09;101143.94;;;17.41;100.00
3122;BME280;1571;52.524;14.104;2022-07-23T08:55:37;101140.41;;;17.41;100.00
3122;BME280;1571;52.524;14.104;2022-07-23T08:58:06;101131.25;;;17.11;100.00
3122;BME280;1571;52.524;14.104;2022-07-23T09:00:34;101103.41;;;17.23;100.00
3122;BME280;1571;52.524;14.104;2022-07-23T09:03:02;101096.78;;;16.74;100.00
3122;BME280;1571;52.524;14.104;2022-07-23T09:05:32;101094.84;;;17.30;100.00
3122;BME280;1571;52.524;14.104;2022-07-23T09:08:07;101099.09;;;17.32;100.00
3122;BME280;1571;52.524;14.104;2022-07-23T09:10:47;101093.00;;;17.51;100.00
3122;BME280;1571;52.524;14.104;2022-07-23T09:13:24;101106.69;;;17.48;100.00
3122;BME280;1571;52.524;14.104;2022-07-23T09:15:55;101090.00;;;17.65;100.00
3122;BME280;1571;52.524;14.104;2022-07-23T09:18:36;101086.66;;;17.52;100.00
3122;BME280;1571;52.524;14.104;2022-07-23T09:21:23;101103.81;;;17.19;100.00
3122;BME280;1571;52.524;14.104;2022-07-23T09:23:55;101107.00;;;17.34;100.00
3122;BME280;1571;52.524;14.104;2022-07-23T09:26:25;101102.53;;;17.65;100.00
3122;BME280;1571;52.524;14.104;2022-07-23T09:29:06;101092.88;;;17.53;100.00
3122;BME280;1571;52.524;14.104;2022-07-23T09:31:43;101093.94;;;18.33;100.00
3122;BME280;1571;52.524;14.104;2022-07-23T09:34:14;101094.59;;;18.65;100.00
3122;BME280;1571;52.524;14.104;2022-07-23T09:36:44;101080.03;;;19.17;100.00
3122;BME280;1571;52.524;14.104;2022-07-23T09:39:13;101081.03;;;18.96;100.00
3122;BME280;1571;52.524;14.104;2022-07-23T09:41:44;101083.88;;;18.95;97.64
3122;BME280;1571;52.524;14.104;2022-07-23T09:44:14;101086.38;;;18.67;98.30
3122;BME280;1571;52.524;14.104;2022-07-23T09:46:45;101073.91;;;19.34;98.30
3122;BME280;1571;52.524;14.104;2022-07-23T09:49:16;101083.28;;;19.20;99.08
3122;BME280;1571;52.524;14.104;2022-07-23T09:51:48;101086.97;;;19.19;95.90
3122;BME280;1571;52.524;14.104;2022-07-23T09:54:26;101088.31;;;19.62;95.54
3122;BME280;1571;52.524;14.104;2022-07-23T09:56:56;101085.19;;;19.57;91.39
3122;BME280;1571;52.524;14.104;2022-07-23T09:59:26;101106.25;;;20.18;90.18
3122;BME280;1571;52.524;14.104;2022-07-23T10:01:56;101102.69;;;20.46;87.51
3122;BME280;1571;52.524;14.104;2022-07-23T10:04:27;101099.91;;;20.10;87.79
3122;BME280;1571;52.524;14.104;2022-07-23T10:07:22;101102.97;;;19.30;90.49
3122;BME280;1571;52.524;14.104;2022-07-23T10:10:13;101106.44;;;19.80;87.78
3122;BME280;1571;52.524;14.104;2022-07-23T10:13:07;101113.69;;;19.69;86.94
3122;BME280;1571;52.524;14.104;2022-07-23T10:15:53;101116.38;;;19.60;86.28
3122;BME280;1571;52.524;14.104;2022-07-23T10:18:22;101125.00;;;19.63;84.05
3122;BME280;1571;52.524;14.104;2022-07-23T10:20:51;101122.09;;;20.31;82.40
3122;BME280;1571;52.524;14.104;2022-07-23T10:23:27;101123.41;;;19.90;83.24
3122;BME280;1571;52.524;14.104;2022-07-23T10:25:59;101126.13;;;20.73;82.47
3122;BME280;1571;52.524;14.104;2022-07-23T10:28:56;101125.75;;;20.40;81.34
3122;BME280;1571;52.524;14.104;2022-07-23T10:31:38;101127.97;;;21.26;78.78
3122;BME280;1571;52.524;14.104;2022-07-23T10:34:34;101130.06;;;20.61;80.32
3122;BME280;1571;52.524;14.104;2022-07-23T10:37:12;101124.03;;;21.20;78.56
3122;BME280;1571;52.524;14.104;2022-07-23T10:40:08;101121.66;;;21.61;77.15
3122;BME280;1571;52.524;14.104;2022-07-23T10:42:37;101122.09;;;21.49;79.56
3122;BME280;1571;52.524;14.104;2022-07-23T10:45:30;101123.63;;;21.33;77.53
3122;BME280;1571;52.524;14.104;2022-07-23T10:48:12;101138.63;;;20.74;77.01
3122;BME280;1571;52.524;14.104;2022-07-23T10:50:42;101141.72;;;21.15;76.72
3122;BME280;1571;52.524;14.104;2022-07-23T10:53:13;101139.94;;;21.06;79.11
3122;BME280;1571;52.524;14.104;2022-07-23T10:55:46;101144.91;;;20.65;79.04
3122;BME280;1571;52.524;14.104;2022-07-23T10:58:21;101145.00;;;20.73;78.36
3122;BME280;1571;52.524;14.104;2022-07-23T11:00:50;101134.03;;;20.29;77.82
3122;BME280;1571;52.524;14.104;2022-07-23T11:03:30;101137.59;;;20.75;77.18
3122;BME280;1571;52.524;14.104;2022-07-23T11:06:00;101144.19;;;20.90;77.71
3122;BME280;1571;52.524;14.104;2022-07-23T11:08:28;101139.78;;;21.07;76.87
3122;BME280;1571;52.524;14.104;2022-07-23T11:11:09;101141.03;;;20.95;76.91
3122;BME280;1571;52.524;14.104;2022-07-23T11:13:44;101143.09;;;20.83;77.85
3122;BME280;1571;52.524;14.104;2022-07-23T11:16:18;101149.91;;;20.59;77.42
3122;BME280;1571;52.524;14.104;2022-07-23T11:19:07;101145.00;;;20.73;76.04
3122;BME280;1571;52.524;14.104;2022-07-23T11:21:48;101148.50;;;20.83;75.88
3122;BME280;1571;52.524;14.104;2022-07-23T11:24:22;101150.00;;;20.68;73.57
3122;BME280;1571;52.524;14.104;2022-07-23T11:26:58;101153.09;;;20.73;72.78
3122;BME280;1571;52.524;14.104;2022-07-23T11:29:46;101148.63;;;20.82;71.71
3122;BME280;1571;52.524;14.104;2022-07-23T11:32:30;101153.94;;;20.73;72.30
3122;BME280;1571;52.524;14.104;2022-07-23T11:35:01;101148.19;;;20.86;73.09
3122;BME280;1571;52.524;14.104;2022-07-23T11:37:35;101146.41;;;20.49;75.69
3122;BME280;1571;52.524;14.104;2022-07-23T11:40:07;101141.22;;;20.66;74.16
3122;BME280;1571;52.524;14.104;2022-07-23T11:42:38;101134.81;;;20.11;75.04
3122;BME280;1571;52.524;14.104;2022-07-23T11:45:08;101142.38;;;20.63;74.58
3122;BME280;1571;52.524;14.104;2022-07-23T11:47:37;101144.97;;;20.27;74.70
3122;BME280;1571;52.524;14.104;2022-07-23T11:50:06;101145.41;;;20.50;74.95
3122;BME280;1571;52.524;14.104;2022-07-23T11:52:35;101136.19;;;20.98;72.87
3122;BME280;1571;52.524;14.104;2022-07-23T11:55:05;101124.75;;;21.67;74.62
3122;BME280;1571;52.524;14.104;2022-07-23T11:57:35;101137.94;;;20.90;73.35
3122;BME280;1571;52.524;14.104;2022-07-23T12:00:07;101138.31;;;21.13;74.33
3122;BME280;1571;52.524;14.104;2022-07-23T12:02:38;101128.22;;;22.11;73.57
3122;BME280;1571;52.524;14.104;2022-07-23T12:05:10;101127.63;;;22.26;70.65
3122;BME280;1571;52.524;14.104;2022-07-23T12:07:40;101122.47;;;22.49;71.82
3122;BME280;1571;52.524;14.104;2022-07-23T12:10:13;101119.69;;;22.91;69.50
3122;BME280;1571;52.524;14.104;2022-07-23T12:12:43;101111.09;;;23.53;68.30
3122;BME280;1571;52.524;14.104;2022-07-23T12:15:15;101126.31;;;23.54;64.55
3122;BME280;1571;52.524;14.104;2022-07-23T12:17:45;101116.69;;;23.19;63.67
3122;BME280;1571;52.524;14.104;2022-07-23T12:20:20;101116.38;;;23.22;64.29
3122;BME280;1571;52.524;14.104;2022-07-23T12:22:51;101129.22;;;23.36;63.66
3122;BME280;1571;52.524;14.104;2022-07-23T12:25:22;101117.03;;;23.40;65.08
3122;BME280;1571;52.524;14.104;2022-07-23T12:27:59;101127.88;;;23.48;64.30
3122;BME280;1571;52.524;14.104;2022-07-23T12:30:31;101132.25;;;23.58;63.46
3122;BME280;1571;52.524;14.104;2022-07-23T12:33:03;101124.09;;;22.92;63.36
3122;BME280;1571;52.524;14.104;2022-07-23T12:35:36;101132.25;;;23.25;63.13
3122;BME280;1571;52.524;14.104;2022-07-23T12:38:08;101127.09;;;22.73;63.60
3122;BME280;1571;52.524;14.104;2022-07-23T12:40:42;101117.22;;;22.47;65.13
3122;BME280;1571;52.524;14.104;2022-07-23T12:43:19;101125.44;;;22.80;63.79
3122;BME280;1571;52.524;14.104;2022-07-23T12:45:50;101128.88;;;23.23;62.56
3122;BME280;1571;52.524;14.104;2022-07-23T12:48:24;101122.56;;;23.88;61.05
3122;BME280;1571;52.524;14.104;2022-07-23T12:50:54;101138.50;;;23.58;60.25
3122;BME280;1571;52.524;14.104;2022-07-23T12:53:25;101136.00;;;23.24;60.94
3122;BME280;1571;52.524;14.104;2022-07-23T12:56:00;101127.19;;;23.38;60.20
3122;BME280;1571;52.524;14.104;2022-07-23T12:58:45;101133.59;;;23.78;60.88
3122;BME280;1571;52.524;14.104;2022-07-23T13:01:24;101131.59;;;24.20;60.11
3122;BME280;1571;52.524;14.104;2022-07-23T13:03:59;101120.50;;;23.98;63.64
3122;BME280;1571;52.524;14.104;2022-07-23T13:06:28;101131.63;;;24.59;59.18
3122;BME280;1571;52.524;14.104;2022-07-23T13:08:57;101130.69;;;24.75;58.16
3122;BME280;1571;52.524;14.104;2022-07-23T13:11:27;101124.75;;;24.71;59.38
3122;BME280;1571;52.524;14.104;2022-07-23T13:13:57;101123.78;;;24.64;58.42